Preview of NWS' New Version of Forecast
This preview is not operational and should not be used for support decisions.

Terminal Aerodrome Forecast (TAF)

Issued by National Weather Service (NWS)

                            
876 
FTUS42 KKEY 280748 AAA
TAFEYW
TAF AMD
KEYW 280748Z 2808/2906 17012G19KT P6SM SCT013 BKN030 BKN050
      TEMPO 2808/2810 17020G28KT 4SM SHRA BR BKN013 BKN030
     FM281200 18016G27KT P6SM VCTS SCT020CB BKN100=